sensor_id;sensor_type;location;lat;lon;timestamp;P1;durP1;ratioP1;P2;durP2;ratioP2
69034;SDS011;56091;55.756;37.412;2024-03-07T00:01:46;16.48;;;2.42;;
69034;SDS011;56091;55.756;37.412;2024-03-07T00:06:47;8.90;;;1.80;;
69034;SDS011;56091;55.756;37.412;2024-03-07T00:11:48;6.15;;;1.95;;
69034;SDS011;56091;55.756;37.412;2024-03-07T00:16:49;6.53;;;2.10;;
69034;SDS011;56091;55.756;37.412;2024-03-07T00:21:50;10.88;;;2.67;;
69034;SDS011;56091;55.756;37.412;2024-03-07T00:26:51;6.00;;;2.07;;
69034;SDS011;56091;55.756;37.412;2024-03-07T00:31:51;6.53;;;1.97;;
69034;SDS011;56091;55.756;37.412;2024-03-07T00:36:52;6.43;;;1.92;;
69034;SDS011;56091;55.756;37.412;2024-03-07T00:41:53;6.43;;;1.80;;
69034;SDS011;56091;55.756;37.412;2024-03-07T00:46:54;6.00;;;2.00;;
69034;SDS011;56091;55.756;37.412;2024-03-07T00:51:55;8.35;;;2.05;;
69034;SDS011;56091;55.756;37.412;2024-03-07T00:56:55;7.27;;;2.00;;
69034;SDS011;56091;55.756;37.412;2024-03-07T01:01:56;8.00;;;2.15;;
69034;SDS011;56091;55.756;37.412;2024-03-07T01:06:57;9.10;;;1.93;;
69034;SDS011;56091;55.756;37.412;2024-03-07T01:11:58;5.25;;;1.95;;
69034;SDS011;56091;55.756;37.412;2024-03-07T01:17:00;5.53;;;1.80;;
69034;SDS011;56091;55.756;37.412;2024-03-07T01:22:00;6.70;;;2.00;;
69034;SDS011;56091;55.756;37.412;2024-03-07T01:27:01;5.53;;;2.00;;
69034;SDS011;56091;55.756;37.412;2024-03-07T01:32:02;6.33;;;1.90;;
69034;SDS011;56091;55.756;37.412;2024-03-07T01:37:03;8.82;;;1.73;;
69034;SDS011;56091;55.756;37.412;2024-03-07T01:42:04;6.87;;;2.00;;
69034;SDS011;56091;55.756;37.412;2024-03-07T01:47:05;7.88;;;2.33;;
69034;SDS011;56091;55.756;37.412;2024-03-07T01:52:06;5.67;;;1.87;;
69034;SDS011;56091;55.756;37.412;2024-03-07T01:57:09;6.68;;;2.35;;
69034;SDS011;56091;55.756;37.412;2024-03-07T02:02:11;7.57;;;2.40;;
69034;SDS011;56091;55.756;37.412;2024-03-07T02:07:12;7.43;;;2.70;;
69034;SDS011;56091;55.756;37.412;2024-03-07T02:12:13;8.70;;;2.40;;
69034;SDS011;56091;55.756;37.412;2024-03-07T02:17:13;9.18;;;3.20;;
69034;SDS011;56091;55.756;37.412;2024-03-07T02:22:15;11.23;;;2.73;;
69034;SDS011;56091;55.756;37.412;2024-03-07T02:27:15;8.25;;;3.08;;
69034;SDS011;56091;55.756;37.412;2024-03-07T02:32:16;16.80;;;3.87;;
69034;SDS011;56091;55.756;37.412;2024-03-07T02:37:18;11.20;;;3.05;;
69034;SDS011;56091;55.756;37.412;2024-03-07T02:42:18;10.17;;;3.03;;
69034;SDS011;56091;55.756;37.412;2024-03-07T02:47:19;9.50;;;2.95;;
69034;SDS011;56091;55.756;37.412;2024-03-07T02:52:20;10.33;;;2.93;;
69034;SDS011;56091;55.756;37.412;2024-03-07T02:57:21;13.53;;;3.53;;
69034;SDS011;56091;55.756;37.412;2024-03-07T03:02:22;11.40;;;3.33;;
69034;SDS011;56091;55.756;37.412;2024-03-07T03:07:23;16.27;;;4.30;;
69034;SDS011;56091;55.756;37.412;2024-03-07T03:12:24;13.27;;;4.22;;
69034;SDS011;56091;55.756;37.412;2024-03-07T03:17:24;18.27;;;4.10;;
69034;SDS011;56091;55.756;37.412;2024-03-07T03:22:25;13.40;;;4.13;;
69034;SDS011;56091;55.756;37.412;2024-03-07T03:27:27;9.38;;;3.08;;
69034;SDS011;56091;55.756;37.412;2024-03-07T03:32:28;11.97;;;3.10;;
69034;SDS011;56091;55.756;37.412;2024-03-07T03:37:28;10.63;;;3.30;;
69034;SDS011;56091;55.756;37.412;2024-03-07T03:42:30;12.27;;;3.65;;
69034;SDS011;56091;55.756;37.412;2024-03-07T03:47:31;12.33;;;3.57;;
69034;SDS011;56091;55.756;37.412;2024-03-07T03:52:34;13.68;;;4.10;;
69034;SDS011;56091;55.756;37.412;2024-03-07T03:57:38;12.83;;;3.97;;
69034;SDS011;56091;55.756;37.412;2024-03-07T04:02:44;12.05;;;3.67;;
69034;SDS011;56091;55.756;37.412;2024-03-07T04:07:49;11.60;;;2.87;;
69034;SDS011;56091;55.756;37.412;2024-03-07T04:12:50;9.13;;;2.92;;
69034;SDS011;56091;55.756;37.412;2024-03-07T04:17:50;10.37;;;2.63;;
69034;SDS011;56091;55.756;37.412;2024-03-07T04:22:52;9.20;;;3.20;;
69034;SDS011;56091;55.756;37.412;2024-03-07T04:27:52;7.23;;;2.43;;
69034;SDS011;56091;55.756;37.412;2024-03-07T04:32:53;11.07;;;2.65;;
69034;SDS011;56091;55.756;37.412;2024-03-07T04:37:54;10.43;;;3.00;;
69034;SDS011;56091;55.756;37.412;2024-03-07T04:42:55;7.80;;;2.80;;
69034;SDS011;56091;55.756;37.412;2024-03-07T04:47:56;11.70;;;3.08;;
69034;SDS011;56091;55.756;37.412;2024-03-07T04:52:57;7.60;;;2.50;;
69034;SDS011;56091;55.756;37.412;2024-03-07T04:57:58;6.57;;;2.42;;
69034;SDS011;56091;55.756;37.412;2024-03-07T05:02:59;9.07;;;2.80;;
69034;SDS011;56091;55.756;37.412;2024-03-07T05:08:01;7.57;;;2.42;;
69034;SDS011;56091;55.756;37.412;2024-03-07T05:13:02;16.10;;;2.50;;
69034;SDS011;56091;55.756;37.412;2024-03-07T05:18:03;9.70;;;2.95;;
69034;SDS011;56091;55.756;37.412;2024-03-07T05:23:05;8.60;;;2.70;;
69034;SDS011;56091;55.756;37.412;2024-03-07T05:28:06;10.82;;;2.60;;
69034;SDS011;56091;55.756;37.412;2024-03-07T05:33:07;6.83;;;2.77;;
69034;SDS011;56091;55.756;37.412;2024-03-07T05:38:07;7.72;;;2.00;;
69034;SDS011;56091;55.756;37.412;2024-03-07T05:43:08;5.50;;;1.90;;
69034;SDS011;56091;55.756;37.412;2024-03-07T05:48:14;7.87;;;2.20;;
69034;SDS011;56091;55.756;37.412;2024-03-07T05:53:16;9.63;;;2.28;;
69034;SDS011;56091;55.756;37.412;2024-03-07T05:58:18;8.73;;;2.20;;
69034;SDS011;56091;55.756;37.412;2024-03-07T06:03:22;8.57;;;2.28;;
69034;SDS011;56091;55.756;37.412;2024-03-07T06:08:24;8.17;;;2.43;;
69034;SDS011;56091;55.756;37.412;2024-03-07T06:13:25;6.45;;;2.00;;
69034;SDS011;56091;55.756;37.412;2024-03-07T06:18:26;8.63;;;2.30;;
69034;SDS011;56091;55.756;37.412;2024-03-07T06:23:31;6.45;;;2.20;;
69034;SDS011;56091;55.756;37.412;2024-03-07T06:28:32;9.17;;;2.53;;
69034;SDS011;56091;55.756;37.412;2024-03-07T06:33:33;10.27;;;2.60;;
69034;SDS011;56091;55.756;37.412;2024-03-07T06:38:34;6.55;;;2.05;;
69034;SDS011;56091;55.756;37.412;2024-03-07T06:43:35;8.37;;;2.40;;
69034;SDS011;56091;55.756;37.412;2024-03-07T06:48:36;9.48;;;2.47;;
69034;SDS011;56091;55.756;37.412;2024-03-07T06:53:37;6.83;;;2.40;;
69034;SDS011;56091;55.756;37.412;2024-03-07T06:58:38;7.25;;;2.65;;
69034;SDS011;56091;55.756;37.412;2024-03-07T07:03:39;9.30;;;2.38;;
69034;SDS011;56091;55.756;37.412;2024-03-07T07:08:43;7.00;;;2.50;;
69034;SDS011;56091;55.756;37.412;2024-03-07T07:13:45;7.85;;;2.30;;
69034;SDS011;56091;55.756;37.412;2024-03-07T07:18:47;7.95;;;2.50;;
69034;SDS011;56091;55.756;37.412;2024-03-07T07:23:48;10.30;;;2.63;;
69034;SDS011;56091;55.756;37.412;2024-03-07T07:28:48;10.20;;;2.63;;
69034;SDS011;56091;55.756;37.412;2024-03-07T07:33:49;6.75;;;2.45;;
69034;SDS011;56091;55.756;37.412;2024-03-07T07:38:50;6.00;;;2.23;;
69034;SDS011;56091;55.756;37.412;2024-03-07T07:43:51;10.18;;;2.50;;
69034;SDS011;56091;55.756;37.412;2024-03-07T07:48:52;9.33;;;2.80;;
69034;SDS011;56091;55.756;37.412;2024-03-07T07:53:52;6.13;;;2.30;;
69034;SDS011;56091;55.756;37.412;2024-03-07T07:58:54;6.75;;;2.05;;
69034;SDS011;56091;55.756;37.412;2024-03-07T08:03:55;8.40;;;2.60;;
69034;SDS011;56091;55.756;37.412;2024-03-07T08:08:56;7.78;;;2.35;;
69034;SDS011;56091;55.756;37.412;2024-03-07T08:13:56;7.70;;;2.30;;
69034;SDS011;56091;55.756;37.412;2024-03-07T08:18:57;13.05;;;2.28;;
69034;SDS011;56091;55.756;37.412;2024-03-07T08:23:58;6.43;;;2.20;;
69034;SDS011;56091;55.756;37.412;2024-03-07T08:28:59;7.60;;;2.03;;
69034;SDS011;56091;55.756;37.412;2024-03-07T08:34:00;7.72;;;2.33;;
69034;SDS011;56091;55.756;37.412;2024-03-07T08:39:00;8.80;;;2.10;;
69034;SDS011;56091;55.756;37.412;2024-03-07T08:44:03;7.97;;;2.55;;
69034;SDS011;56091;55.756;37.412;2024-03-07T08:49:04;5.65;;;1.92;;
69034;SDS011;56091;55.756;37.412;2024-03-07T08:54:05;7.25;;;1.77;;
69034;SDS011;56091;55.756;37.412;2024-03-07T08:59:06;7.95;;;2.00;;
69034;SDS011;56091;55.756;37.412;2024-03-07T09:04:07;5.10;;;1.77;;
69034;SDS011;56091;55.756;37.412;2024-03-07T09:09:07;7.75;;;1.90;;
69034;SDS011;56091;55.756;37.412;2024-03-07T09:14:09;8.30;;;1.90;;
69034;SDS011;56091;55.756;37.412;2024-03-07T09:19:10;3.75;;;1.45;;
69034;SDS011;56091;55.756;37.412;2024-03-07T09:24:14;6.35;;;1.98;;
69034;SDS011;56091;55.756;37.412;2024-03-07T09:29:19;6.53;;;2.00;;
69034;SDS011;56091;55.756;37.412;2024-03-07T09:34:20;6.18;;;2.08;;
69034;SDS011;56091;55.756;37.412;2024-03-07T09:39:21;6.07;;;1.80;;
69034;SDS011;56091;55.756;37.412;2024-03-07T09:44:22;4.70;;;1.52;;
69034;SDS011;56091;55.756;37.412;2024-03-07T09:49:25;4.87;;;1.63;;
69034;SDS011;56091;55.756;37.412;2024-03-07T09:54:28;4.35;;;1.60;;
69034;SDS011;56091;55.756;37.412;2024-03-07T09:59:31;5.10;;;1.50;;
69034;SDS011;56091;55.756;37.412;2024-03-07T10:09:48;7.40;;;2.67;;
69034;SDS011;56091;55.756;37.412;2024-03-07T10:14:54;5.53;;;1.60;;
69034;SDS011;56091;55.756;37.412;2024-03-07T10:20:00;7.93;;;2.20;;
69034;SDS011;56091;55.756;37.412;2024-03-07T10:25:01;6.95;;;2.13;;
69034;SDS011;56091;55.756;37.412;2024-03-07T10:30:04;8.00;;;2.03;;
69034;SDS011;56091;55.756;37.412;2024-03-07T10:35:08;6.47;;;2.17;;
69034;SDS011;56091;55.756;37.412;2024-03-07T10:40:09;5.93;;;2.07;;
69034;SDS011;56091;55.756;37.412;2024-03-07T10:45:15;9.80;;;2.22;;
69034;SDS011;56091;55.756;37.412;2024-03-07T10:55:52;6.63;;;2.20;;
69034;SDS011;56091;55.756;37.412;2024-03-07T11:01:00;8.27;;;2.37;;
69034;SDS011;56091;55.756;37.412;2024-03-07T11:06:03;6.70;;;2.35;;
69034;SDS011;56091;55.756;37.412;2024-03-07T11:11:12;6.10;;;2.43;;
69034;SDS011;56091;55.756;37.412;2024-03-07T11:16:14;5.93;;;2.15;;
69034;SDS011;56091;55.756;37.412;2024-03-07T11:26:46;7.97;;;2.33;;
69034;SDS011;56091;55.756;37.412;2024-03-07T11:31:48;7.17;;;2.57;;
69034;SDS011;56091;55.756;37.412;2024-03-07T11:36:48;6.40;;;2.67;;
69034;SDS011;56091;55.756;37.412;2024-03-07T11:41:56;8.53;;;2.70;;
69034;SDS011;56091;55.756;37.412;2024-03-07T11:46:56;6.20;;;2.28;;
69034;SDS011;56091;55.756;37.412;2024-03-07T11:51:57;7.47;;;2.13;;
69034;SDS011;56091;55.756;37.412;2024-03-07T11:56:59;8.93;;;2.75;;
69034;SDS011;56091;55.756;37.412;2024-03-07T12:02:00;6.88;;;2.00;;
69034;SDS011;56091;55.756;37.412;2024-03-07T12:07:01;8.33;;;2.10;;
69034;SDS011;56091;55.756;37.412;2024-03-07T12:12:06;7.88;;;2.80;;
69034;SDS011;56091;55.756;37.412;2024-03-07T12:17:07;7.63;;;3.10;;
69034;SDS011;56091;55.756;37.412;2024-03-07T12:22:08;6.07;;;2.20;;
69034;SDS011;56091;55.756;37.412;2024-03-07T12:27:12;8.77;;;3.27;;
69034;SDS011;56091;55.756;37.412;2024-03-07T12:32:16;9.55;;;2.88;;
69034;SDS011;56091;55.756;37.412;2024-03-07T12:37:18;7.47;;;2.30;;
69034;SDS011;56091;55.756;37.412;2024-03-07T12:42:24;5.97;;;1.95;;
69034;SDS011;56091;55.756;37.412;2024-03-07T12:47:25;7.03;;;1.70;;
69034;SDS011;56091;55.756;37.412;2024-03-07T12:52:28;6.68;;;1.98;;
69034;SDS011;56091;55.756;37.412;2024-03-07T12:57:29;8.90;;;2.40;;
69034;SDS011;56091;55.756;37.412;2024-03-07T13:02:30;7.37;;;2.10;;
69034;SDS011;56091;55.756;37.412;2024-03-07T13:07:31;7.00;;;1.90;;
69034;SDS011;56091;55.756;37.412;2024-03-07T13:12:32;8.10;;;1.70;;
69034;SDS011;56091;55.756;37.412;2024-03-07T13:17:34;4.80;;;1.58;;
69034;SDS011;56091;55.756;37.412;2024-03-07T13:22:35;6.03;;;2.00;;
69034;SDS011;56091;55.756;37.412;2024-03-07T13:27:36;4.22;;;1.52;;
69034;SDS011;56091;55.756;37.412;2024-03-07T13:32:36;5.03;;;1.87;;
69034;SDS011;56091;55.756;37.412;2024-03-07T13:37:37;8.63;;;1.77;;
69034;SDS011;56091;55.756;37.412;2024-03-07T13:42:38;5.05;;;1.60;;
69034;SDS011;56091;55.756;37.412;2024-03-07T13:47:39;5.10;;;1.60;;
69034;SDS011;56091;55.756;37.412;2024-03-07T13:52:40;6.65;;;1.85;;
69034;SDS011;56091;55.756;37.412;2024-03-07T13:57:46;5.97;;;1.60;;
69034;SDS011;56091;55.756;37.412;2024-03-07T14:13:40;5.18;;;1.70;;
69034;SDS011;56091;55.756;37.412;2024-03-07T14:18:55;6.87;;;2.50;;
69034;SDS011;56091;55.756;37.412;2024-03-07T14:34:55;6.93;;;2.35;;
69034;SDS011;56091;55.756;37.412;2024-03-07T14:40:15;20.03;;;5.83;;
69034;SDS011;56091;55.756;37.412;2024-03-07T14:45:18;8.10;;;2.90;;
69034;SDS011;56091;55.756;37.412;2024-03-07T14:50:21;6.33;;;2.10;;
69034;SDS011;56091;55.756;37.412;2024-03-07T14:55:23;6.07;;;2.20;;
69034;SDS011;56091;55.756;37.412;2024-03-07T15:00:24;8.13;;;3.10;;
69034;SDS011;56091;55.756;37.412;2024-03-07T15:05:28;5.20;;;2.00;;
69034;SDS011;56091;55.756;37.412;2024-03-07T15:10:31;6.97;;;1.90;;
69034;SDS011;56091;55.756;37.412;2024-03-07T15:15:33;8.38;;;2.25;;
69034;SDS011;56091;55.756;37.412;2024-03-07T15:20:34;9.23;;;3.20;;
69034;SDS011;56091;55.756;37.412;2024-03-07T15:25:35;5.30;;;1.95;;
69034;SDS011;56091;55.756;37.412;2024-03-07T15:30:37;5.10;;;2.10;;
69034;SDS011;56091;55.756;37.412;2024-03-07T15:35:39;8.38;;;1.98;;
69034;SDS011;56091;55.756;37.412;2024-03-07T15:40:40;6.95;;;2.17;;
69034;SDS011;56091;55.756;37.412;2024-03-07T15:45:40;8.17;;;2.57;;
69034;SDS011;56091;55.756;37.412;2024-03-07T15:50:43;8.77;;;2.88;;
69034;SDS011;56091;55.756;37.412;2024-03-07T15:55:47;21.17;;;5.60;;
69034;SDS011;56091;55.756;37.412;2024-03-07T16:00:48;12.23;;;3.55;;
69034;SDS011;56091;55.756;37.412;2024-03-07T16:05:50;11.10;;;3.80;;
69034;SDS011;56091;55.756;37.412;2024-03-07T16:10:52;10.48;;;2.97;;
69034;SDS011;56091;55.756;37.412;2024-03-07T16:15:53;12.40;;;3.47;;
69034;SDS011;56091;55.756;37.412;2024-03-07T16:20:54;7.90;;;2.55;;
69034;SDS011;56091;55.756;37.412;2024-03-07T16:25:56;13.00;;;2.60;;
69034;SDS011;56091;55.756;37.412;2024-03-07T16:30:58;10.88;;;3.10;;
69034;SDS011;56091;55.756;37.412;2024-03-07T16:36:02;18.97;;;4.03;;
69034;SDS011;56091;55.756;37.412;2024-03-07T16:41:03;13.65;;;4.00;;
69034;SDS011;56091;55.756;37.412;2024-03-07T16:46:06;9.03;;;2.73;;
69034;SDS011;56091;55.756;37.412;2024-03-07T16:51:08;8.73;;;2.53;;
69034;SDS011;56091;55.756;37.412;2024-03-07T16:56:08;12.23;;;4.27;;
69034;SDS011;56091;55.756;37.412;2024-03-07T17:01:10;10.57;;;3.35;;
69034;SDS011;56091;55.756;37.412;2024-03-07T17:06:11;9.57;;;3.63;;
69034;SDS011;56091;55.756;37.412;2024-03-07T17:11:12;10.70;;;4.00;;
69034;SDS011;56091;55.756;37.412;2024-03-07T17:16:13;12.93;;;4.15;;
69034;SDS011;56091;55.756;37.412;2024-03-07T17:21:16;16.60;;;4.47;;
69034;SDS011;56091;55.756;37.412;2024-03-07T17:26:17;15.45;;;4.65;;
69034;SDS011;56091;55.756;37.412;2024-03-07T17:31:18;12.10;;;4.03;;
69034;SDS011;56091;55.756;37.412;2024-03-07T17:36:19;12.07;;;4.32;;
69034;SDS011;56091;55.756;37.412;2024-03-07T17:41:21;11.90;;;4.40;;
69034;SDS011;56091;55.756;37.412;2024-03-07T17:46:22;16.10;;;5.60;;
69034;SDS011;56091;55.756;37.412;2024-03-07T17:51:26;11.07;;;4.13;;
69034;SDS011;56091;55.756;37.412;2024-03-07T17:56:27;13.48;;;5.38;;
69034;SDS011;56091;55.756;37.412;2024-03-07T18:01:30;16.00;;;5.10;;
69034;SDS011;56091;55.756;37.412;2024-03-07T18:06:32;17.10;;;5.03;;
69034;SDS011;56091;55.756;37.412;2024-03-07T18:11:33;12.47;;;4.63;;
69034;SDS011;56091;55.756;37.412;2024-03-07T18:16:34;17.55;;;5.72;;
69034;SDS011;56091;55.756;37.412;2024-03-07T18:21:34;15.33;;;5.07;;
69034;SDS011;56091;55.756;37.412;2024-03-07T18:26:35;14.30;;;5.10;;
69034;SDS011;56091;55.756;37.412;2024-03-07T18:31:36;14.00;;;5.00;;
69034;SDS011;56091;55.756;37.412;2024-03-07T18:36:38;10.17;;;4.37;;
69034;SDS011;56091;55.756;37.412;2024-03-07T18:41:41;13.30;;;4.80;;
69034;SDS011;56091;55.756;37.412;2024-03-07T18:46:45;9.87;;;4.57;;
69034;SDS011;56091;55.756;37.412;2024-03-07T18:51:48;13.10;;;5.00;;
69034;SDS011;56091;55.756;37.412;2024-03-07T18:56:49;10.90;;;4.70;;
69034;SDS011;56091;55.756;37.412;2024-03-07T19:01:53;14.07;;;4.85;;
69034;SDS011;56091;55.756;37.412;2024-03-07T19:06:54;11.53;;;4.07;;
69034;SDS011;56091;55.756;37.412;2024-03-07T19:11:58;13.75;;;5.60;;
69034;SDS011;56091;55.756;37.412;2024-03-07T19:17:01;17.23;;;5.33;;
69034;SDS011;56091;55.756;37.412;2024-03-07T19:22:03;11.98;;;4.75;;
69034;SDS011;56091;55.756;37.412;2024-03-07T19:27:04;13.27;;;5.80;;
69034;SDS011;56091;55.756;37.412;2024-03-07T19:32:08;13.25;;;5.45;;
69034;SDS011;56091;55.756;37.412;2024-03-07T19:37:09;13.53;;;5.20;;
69034;SDS011;56091;55.756;37.412;2024-03-07T19:42:10;13.20;;;5.20;;
69034;SDS011;56091;55.756;37.412;2024-03-07T19:47:12;13.20;;;4.77;;
69034;SDS011;56091;55.756;37.412;2024-03-07T19:52:13;12.73;;;5.13;;
69034;SDS011;56091;55.756;37.412;2024-03-07T19:57:14;11.27;;;4.60;;
69034;SDS011;56091;55.756;37.412;2024-03-07T20:02:19;26.35;;;5.05;;
69034;SDS011;56091;55.756;37.412;2024-03-07T20:07:19;14.17;;;5.03;;
69034;SDS011;56091;55.756;37.412;2024-03-07T20:12:20;14.82;;;5.10;;
69034;SDS011;56091;55.756;37.412;2024-03-07T20:17:21;15.80;;;5.57;;
69034;SDS011;56091;55.756;37.412;2024-03-07T20:22:22;18.43;;;4.90;;
69034;SDS011;56091;55.756;37.412;2024-03-07T20:27:23;13.73;;;4.40;;
69034;SDS011;56091;55.756;37.412;2024-03-07T20:32:24;11.17;;;4.33;;
69034;SDS011;56091;55.756;37.412;2024-03-07T20:37:25;10.13;;;4.03;;
69034;SDS011;56091;55.756;37.412;2024-03-07T20:42:26;21.67;;;4.10;;
69034;SDS011;56091;55.756;37.412;2024-03-07T20:47:29;8.52;;;3.22;;
69034;SDS011;56091;55.756;37.412;2024-03-07T20:52:30;9.50;;;3.97;;
69034;SDS011;56091;55.756;37.412;2024-03-07T20:57:32;8.55;;;3.83;;
69034;SDS011;56091;55.756;37.412;2024-03-07T21:02:33;11.60;;;2.97;;
69034;SDS011;56091;55.756;37.412;2024-03-07T21:07:37;11.30;;;3.45;;
69034;SDS011;56091;55.756;37.412;2024-03-07T21:12:39;7.10;;;2.40;;
69034;SDS011;56091;55.756;37.412;2024-03-07T21:17:44;8.85;;;3.22;;
69034;SDS011;56091;55.756;37.412;2024-03-07T21:22:45;10.35;;;3.10;;
69034;SDS011;56091;55.756;37.412;2024-03-07T21:27:48;7.63;;;2.85;;
69034;SDS011;56091;55.756;37.412;2024-03-07T21:32:49;9.02;;;3.25;;
69034;SDS011;56091;55.756;37.412;2024-03-07T21:37:50;7.07;;;3.03;;
69034;SDS011;56091;55.756;37.412;2024-03-07T21:42:51;6.07;;;2.35;;
69034;SDS011;56091;55.756;37.412;2024-03-07T21:47:53;7.73;;;2.10;;
69034;SDS011;56091;55.756;37.412;2024-03-07T21:52:53;8.98;;;2.42;;
69034;SDS011;56091;55.756;37.412;2024-03-07T21:57:54;7.37;;;2.60;;
69034;SDS011;56091;55.756;37.412;2024-03-07T22:02:56;8.48;;;2.88;;
69034;SDS011;56091;55.756;37.412;2024-03-07T22:07:57;6.60;;;2.77;;
69034;SDS011;56091;55.756;37.412;2024-03-07T22:12:58;5.78;;;2.40;;
69034;SDS011;56091;55.756;37.412;2024-03-07T22:17:59;11.57;;;3.50;;
69034;SDS011;56091;55.756;37.412;2024-03-07T22:23:00;10.50;;;3.67;;
69034;SDS011;56091;55.756;37.412;2024-03-07T22:28:00;8.63;;;3.10;;
69034;SDS011;56091;55.756;37.412;2024-03-07T22:33:04;9.00;;;3.10;;
69034;SDS011;56091;55.756;37.412;2024-03-07T22:38:07;8.13;;;3.20;;
69034;SDS011;56091;55.756;37.412;2024-03-07T22:43:09;6.00;;;2.60;;
69034;SDS011;56091;55.756;37.412;2024-03-07T22:48:10;8.15;;;2.97;;
69034;SDS011;56091;55.756;37.412;2024-03-07T22:53:11;9.47;;;3.30;;
69034;SDS011;56091;55.756;37.412;2024-03-07T22:58:12;8.70;;;3.35;;
69034;SDS011;56091;55.756;37.412;2024-03-07T23:03:13;9.25;;;3.25;;
69034;SDS011;56091;55.756;37.412;2024-03-07T23:08:14;8.13;;;3.23;;
69034;SDS011;56091;55.756;37.412;2024-03-07T23:13:15;10.43;;;3.67;;
69034;SDS011;56091;55.756;37.412;2024-03-07T23:18:17;9.37;;;3.50;;
69034;SDS011;56091;55.756;37.412;2024-03-07T23:23:18;8.07;;;3.08;;
69034;SDS011;56091;55.756;37.412;2024-03-07T23:28:19;8.53;;;3.60;;
69034;SDS011;56091;55.756;37.412;2024-03-07T23:33:22;11.02;;;3.42;;
69034;SDS011;56091;55.756;37.412;2024-03-07T23:38:24;12.43;;;3.33;;
69034;SDS011;56091;55.756;37.412;2024-03-07T23:43:25;8.93;;;2.80;;
69034;SDS011;56091;55.756;37.412;2024-03-07T23:48:25;8.98;;;3.20;;
69034;SDS011;56091;55.756;37.412;2024-03-07T23:53:26;9.43;;;3.10;;
69034;SDS011;56091;55.756;37.412;2024-03-07T23:58:28;10.98;;;3.60;;
